Time;durP1;ratioP1;P1;durP2;ratioP2;P2;SDS_P1;SDS_P2;PMS_P1;PMS_P2;Temp;Humidity;BMP_temperature;BMP_pressure;BME280_temperature;BME280_humidity;BME280_pressure;Samples;Min_cycle;Max_cycle;Signal;HPM_P1;HPM_P2
2022/10/18 00:00:57;;;;;;;6.32;5.00;;;;;;;;;;5051730;28;20291;-84
2022/10/18 00:03:25;;;;;;;5.68;5.15;;;;;;;;;;5051989;28;20768;-85
2022/10/18 00:05:53;;;;;;;7.90;4.82;;;;;;;;;;5051985;28;20225;-84
2022/10/18 00:08:21;;;;;;;5.30;4.80;;;;;;;;;;5051915;28;20197;-84
2022/10/18 00:10:49;;;;;;;6.40;4.32;;;;;;;;;;5051541;28;20213;-84
2022/10/18 00:13:16;;;;;;;5.20;4.68;;;;;;;;;;5052185;28;20202;-84
2022/10/18 00:15:49;;;;;;;4.70;4.30;;;;;;;;;;5051810;28;20231;-85
2022/10/18 00:18:18;;;;;;;5.05;4.55;;;;;;;;;;5052056;28;20201;-84
2022/10/18 00:20:46;;;;;;;6.55;4.95;;;;;;;;;;5052370;28;20197;-84
2022/10/18 00:23:13;;;;;;;5.00;4.50;;;;;;;;;;5052604;28;20285;-85
2022/10/18 00:25:41;;;;;;;4.75;4.35;;;;;;;;;;5052120;28;20304;-84
2022/10/18 00:28:08;;;;;;;5.75;3.90;;;;;;;;;;5051565;28;20217;-85
2022/10/18 00:30:36;;;;;;;4.68;2.97;;;;;;;;;;5052277;28;20713;-84
2022/10/18 00:33:03;;;;;;;3.35;3.00;;;;;;;;;;5051954;28;20229;-85
2022/10/18 00:35:35;;;;;;;4.07;3.05;;;;;;;;;;5051954;28;20712;-85
2022/10/18 00:38:02;;;;;;;3.80;3.00;;;;;;;;;;5052222;28;20210;-85
2022/10/18 00:40:30;;;;;;;3.63;3.13;;;;;;;;;;5052379;28;20208;-85
2022/10/18 00:42:57;;;;;;;4.45;2.58;;;;;;;;;;5051861;28;20209;-84
2022/10/18 00:45:26;;;;;;;2.20;2.10;;;;;;;;;;5052226;28;20304;-85
2022/10/18 00:47:58;;;;;;;3.80;2.30;;;;;;;;;;5051598;28;20677;-84
2022/10/18 00:50:27;;;;;;;3.15;2.13;;;;;;;;;;5051883;28;20198;-83
2022/10/18 00:52:59;;;;;;;4.82;2.28;;;;;;;;;;5053693;28;20206;-85
2022/10/18 00:55:27;;;;;;;2.40;1.60;;;;;;;;;;5055547;28;20716;-85
2022/10/18 00:57:55;;;;;;;1.83;1.70;;;;;;;;;;5055468;28;20206;-85
2022/10/18 01:00:22;;;;;;;3.33;2.17;;;;;;;;;;5055358;28;20764;-84
2022/10/18 01:02:50;;;;;;;1.98;1.40;;;;;;;;;;5055403;28;20202;-84
2022/10/18 01:05:19;;;;;;;1.30;1.20;;;;;;;;;;5055156;28;20383;-85
2022/10/18 01:08:09;;;;;;;1.45;1.35;;;;;;;;;;5055102;28;20208;-84
2022/10/18 01:10:45;;;;;;;1.40;1.30;;;;;;;;;;5055110;28;20209;-84
2022/10/18 01:13:32;;;;;;;1.83;1.52;;;;;;;;;;5055158;28;20205;-85
2022/10/18 01:16:04;;;;;;;2.30;1.48;;;;;;;;;;5054954;28;20229;-85
2022/10/18 01:18:40;;;;;;;2.00;1.45;;;;;;;;;;5055154;28;20713;-84
2022/10/18 01:21:17;;;;;;;2.88;1.30;;;;;;;;;;5055188;28;20204;-85
2022/10/18 01:24:46;;;;;;;1.70;1.08;;;;;;;;;;5055089;28;20201;-84
2022/10/18 01:27:33;;;;;;;1.20;1.10;;;;;;;;;;5055131;28;20199;-85
2022/10/18 01:30:34;;;;;;;1.02;1.00;;;;;;;;;;5054700;28;20209;-84
2022/10/18 01:33:10;;;;;;;1.80;0.90;;;;;;;;;;5047989;28;20207;-84
2022/10/18 01:35:49;;;;;;;1.10;1.10;;;;;;;;;;5054822;28;20225;-84
2022/10/18 01:38:18;;;;;;;0.95;0.95;;;;;;;;;;5054405;28;20209;-84
2022/10/18 01:40:49;;;;;;;0.93;0.90;;;;;;;;;;5054477;28;20205;-84
2022/10/18 01:43:18;;;;;;;0.80;0.80;;;;;;;;;;5055249;28;20296;-84
2022/10/18 01:45:47;;;;;;;1.65;0.90;;;;;;;;;;5054467;28;20220;-84
2022/10/18 01:48:15;;;;;;;1.35;0.90;;;;;;;;;;5054009;28;20289;-85
2022/10/18 01:50:43;;;;;;;0.82;0.70;;;;;;;;;;5054211;28;20216;-85
2022/10/18 01:53:29;;;;;;;0.90;0.90;;;;;;;;;;5054287;28;20579;-84
2022/10/18 01:56:35;;;;;;;1.35;1.25;;;;;;;;;;5054301;28;20639;-83
2022/10/18 01:59:26;;;;;;;1.00;1.00;;;;;;;;;;5043634;28;20206;-84
2022/10/18 02:02:02;;;;;;;2.13;1.00;;;;;;;;;;5054029;28;20616;-84
2022/10/18 02:04:41;;;;;;;1.80;1.70;;;;;;;;;;5053130;28;20229;-84
2022/10/18 02:07:17;;;;;;;2.20;1.15;;;;;;;;;;5054148;28;20206;-85
2022/10/18 02:09:49;;;;;;;1.05;1.05;;;;;;;;;;5053602;28;20205;-84
2022/10/18 02:12:17;;;;;;;0.88;0.88;;;;;;;;;;5053726;28;20205;-84
2022/10/18 02:14:46;;;;;;;1.10;1.10;;;;;;;;;;5053858;28;20226;-84
2022/10/18 02:17:17;;;;;;;1.60;1.50;;;;;;;;;;5053643;28;20309;-84
2022/10/18 02:19:48;;;;;;;1.92;1.00;;;;;;;;;;5053672;28;20205;-85
2022/10/18 02:22:16;;;;;;;1.20;1.20;;;;;;;;;;5054170;28;20308;-85
2022/10/18 02:24:46;;;;;;;1.00;1.00;;;;;;;;;;5053530;28;20308;-85
2022/10/18 02:27:14;;;;;;;2.00;1.20;;;;;;;;;;5053832;28;20193;-83
2022/10/18 02:29:41;;;;;;;1.45;1.35;;;;;;;;;;5053615;28;20208;-85
2022/10/18 02:32:15;;;;;;;1.27;1.02;;;;;;;;;;5053861;28;20229;-84
2022/10/18 02:34:46;;;;;;;1.20;1.10;;;;;;;;;;5053436;28;20263;-85
2022/10/18 02:37:14;;;;;;;1.63;1.48;;;;;;;;;;5053166;28;20229;-84
2022/10/18 02:39:46;;;;;;;2.65;1.40;;;;;;;;;;5052924;28;20198;-84
2022/10/18 02:42:15;;;;;;;1.30;1.20;;;;;;;;;;5053678;28;20204;-84
2022/10/18 02:44:42;;;;;;;2.33;2.13;;;;;;;;;;5053270;28;20218;-84
2022/10/18 02:47:12;;;;;;;1.10;1.10;;;;;;;;;;5053584;28;20284;-85
2022/10/18 02:49:41;;;;;;;3.22;1.85;;;;;;;;;;5053523;28;20203;-84
2022/10/18 02:52:08;;;;;;;2.67;2.53;;;;;;;;;;5053504;28;20277;-84
2022/10/18 02:54:35;;;;;;;3.00;1.65;;;;;;;;;;5053537;28;20225;-84
2022/10/18 02:57:03;;;;;;;2.47;1.50;;;;;;;;;;5053089;28;20225;-84
2022/10/18 02:59:30;;;;;;;1.52;1.42;;;;;;;;;;5053351;28;20205;-84
2022/10/18 03:01:58;;;;;;;1.60;1.35;;;;;;;;;;5053029;28;20206;-85
2022/10/18 03:04:25;;;;;;;1.55;1.45;;;;;;;;;;5053333;28;20221;-85
2022/10/18 03:06:54;;;;;;;1.50;1.40;;;;;;;;;;5053111;28;20209;-85
2022/10/18 03:09:21;;;;;;;1.58;1.48;;;;;;;;;;5052267;28;20206;-84
2022/10/18 03:11:49;;;;;;;1.60;1.50;;;;;;;;;;5054124;28;20288;-85
2022/10/18 03:14:16;;;;;;;1.65;1.55;;;;;;;;;;5053592;28;20228;-85
2022/10/18 03:16:44;;;;;;;1.13;1.13;;;;;;;;;;5053042;28;20209;-84
2022/10/18 03:19:11;;;;;;;2.05;1.50;;;;;;;;;;5052453;28;20228;-84
2022/10/18 03:21:38;;;;;;;1.55;1.45;;;;;;;;;;5052505;28;20285;-85
2022/10/18 03:24:08;;;;;;;1.35;1.25;;;;;;;;;;5052480;28;20194;-84
2022/10/18 03:26:35;;;;;;;1.60;1.33;;;;;;;;;;5053101;28;20244;-84
2022/10/18 03:29:03;;;;;;;1.60;1.50;;;;;;;;;;5052664;28;20280;-85
2022/10/18 03:31:30;;;;;;;1.48;1.38;;;;;;;;;;5052962;28;20202;-85
2022/10/18 03:33:58;;;;;;;0.93;0.93;;;;;;;;;;5052433;28;20209;-85
2022/10/18 03:36:25;;;;;;;1.92;1.75;;;;;;;;;;5052487;28;20304;-84
2022/10/18 03:38:53;;;;;;;1.40;1.30;;;;;;;;;;5052056;28;20227;-85
2022/10/18 03:41:22;;;;;;;1.75;1.65;;;;;;;;;;5052372;28;20203;-84
2022/10/18 03:43:49;;;;;;;1.42;1.33;;;;;;;;;;5052416;28;20368;-84
2022/10/18 03:46:17;;;;;;;3.38;1.80;;;;;;;;;;5052388;28;20293;-85
2022/10/18 03:48:44;;;;;;;1.52;1.42;;;;;;;;;;5052309;28;20212;-84
2022/10/18 03:51:11;;;;;;;2.00;1.90;;;;;;;;;;5052483;28;20292;-85
2022/10/18 03:53:39;;;;;;;2.17;1.90;;;;;;;;;;5052583;28;20198;-85
2022/10/18 03:56:07;;;;;;;2.38;2.08;;;;;;;;;;5052771;28;20782;-84
2022/10/18 03:58:36;;;;;;;2.92;1.67;;;;;;;;;;5052469;28;20225;-84
2022/10/18 04:01:04;;;;;;;1.60;1.50;;;;;;;;;;5053214;28;20292;-84
2022/10/18 04:03:31;;;;;;;1.25;1.20;;;;;;;;;;5052369;28;20757;-84
2022/10/18 04:05:59;;;;;;;2.08;1.90;;;;;;;;;;5052082;28;20308;-84
2022/10/18 04:08:27;;;;;;;2.40;2.13;;;;;;;;;;5051767;28;20203;-84
2022/10/18 04:10:54;;;;;;;2.58;2.38;;;;;;;;;;5052005;28;20685;-84
2022/10/18 04:13:22;;;;;;;1.63;1.52;;;;;;;;;;5052217;28;20208;-84
2022/10/18 04:15:50;;;;;;;1.60;1.50;;;;;;;;;;5052548;28;20225;-84
2022/10/18 04:18:18;;;;;;;2.70;2.50;;;;;;;;;;5051912;28;20225;-84
2022/10/18 04:20:45;;;;;;;2.13;2.00;;;;;;;;;;5052947;28;20265;-84
2022/10/18 04:23:13;;;;;;;2.22;2.13;;;;;;;;;;5053103;28;20656;-83
2022/10/18 04:25:40;;;;;;;2.65;2.45;;;;;;;;;;5052773;28;20222;-84
2022/10/18 04:28:08;;;;;;;3.13;2.92;;;;;;;;;;5054840;28;20198;-84
2022/10/18 04:30:35;;;;;;;2.92;2.72;;;;;;;;;;5056060;28;20208;-84
2022/10/18 04:33:04;;;;;;;2.90;2.70;;;;;;;;;;5056587;28;20206;-84
2022/10/18 04:35:31;;;;;;;3.45;2.80;;;;;;;;;;5056536;28;20225;-84
2022/10/18 04:37:59;;;;;;;2.80;2.60;;;;;;;;;;5056051;28;20220;-84
2022/10/18 04:40:26;;;;;;;3.15;2.95;;;;;;;;;;5056386;28;20304;-84
2022/10/18 04:42:54;;;;;;;3.05;2.85;;;;;;;;;;5055655;28;20289;-84
2022/10/18 04:45:21;;;;;;;2.63;2.42;;;;;;;;;;5055679;28;20218;-82
2022/10/18 04:47:49;;;;;;;2.97;2.78;;;;;;;;;;5055899;28;20648;-84
2022/10/18 04:50:18;;;;;;;2.30;2.17;;;;;;;;;;5055672;28;20227;-85
2022/10/18 04:52:45;;;;;;;6.75;3.22;;;;;;;;;;5055790;28;20216;-85
2022/10/18 04:55:13;;;;;;;3.33;3.03;;;;;;;;;;5055364;28;20720;-84
2022/10/18 04:57:40;;;;;;;3.03;2.83;;;;;;;;;;5055080;28;20207;-84
2022/10/18 05:00:08;;;;;;;3.45;3.00;;;;;;;;;;5055057;28;20743;-84
2022/10/18 05:02:36;;;;;;;3.33;3.03;;;;;;;;;;5055103;28;20587;-83
2022/10/18 05:05:04;;;;;;;3.15;2.95;;;;;;;;;;5054962;28;20226;-84
2022/10/18 05:07:33;;;;;;;2.50;2.30;;;;;;;;;;5055626;28;20198;-84
2022/10/18 05:10:01;;;;;;;2.70;2.50;;;;;;;;;;5054968;28;20209;-84
2022/10/18 05:12:28;;;;;;;3.25;2.95;;;;;;;;;;5054906;28;20201;-84
2022/10/18 05:14:56;;;;;;;3.35;3.05;;;;;;;;;;5054834;28;20271;-84
2022/10/18 05:17:23;;;;;;;4.32;3.17;;;;;;;;;;5054845;28;20284;-84
2022/10/18 05:19:50;;;;;;;2.58;2.38;;;;;;;;;;5054592;28;20317;-84
2022/10/18 05:22:18;;;;;;;2.17;2.08;;;;;;;;;;5054769;28;20289;-84
2022/10/18 05:24:47;;;;;;;2.70;2.50;;;;;;;;;;5055024;28;20230;-83
2022/10/18 05:27:14;;;;;;;2.08;1.98;;;;;;;;;;5065101;28;20201;-84
2022/10/18 05:29:42;;;;;;;2.03;1.92;;;;;;;;;;5075346;28;20193;-83
2022/10/18 05:32:09;;;;;;;1.95;1.85;;;;;;;;;;5074638;28;20201;-80
2022/10/18 05:34:36;;;;;;;2.00;1.90;;;;;;;;;;5074484;28;20712;-81
2022/10/18 05:37:04;;;;;;;1.42;1.33;;;;;;;;;;5057407;28;20205;-82
2022/10/18 05:39:31;;;;;;;1.48;1.38;;;;;;;;;;5052818;28;20255;-81
2022/10/18 05:42:01;;;;;;;1.40;1.30;;;;;;;;;;5054266;28;20205;-81
2022/10/18 05:44:28;;;;;;;1.40;1.30;;;;;;;;;;5058535;28;20262;-83
2022/10/18 05:46:56;;;;;;;1.50;1.40;;;;;;;;;;5074658;28;20215;-83
2022/10/18 05:49:23;;;;;;;1.50;1.40;;;;;;;;;;5073933;28;20283;-81
2022/10/18 05:51:51;;;;;;;1.40;1.30;;;;;;;;;;5074294;28;20583;-82
2022/10/18 05:54:19;;;;;;;1.70;1.60;;;;;;;;;;5073914;28;20221;-81
2022/10/18 05:56:47;;;;;;;1.92;1.80;;;;;;;;;;5063532;28;20684;-82
2022/10/18 05:59:16;;;;;;;1.92;1.83;;;;;;;;;;5055276;28;20217;-83
2022/10/18 06:01:44;;;;;;;2.10;1.90;;;;;;;;;;5054352;28;20664;-82
2022/10/18 06:04:11;;;;;;;2.40;2.20;;;;;;;;;;5054675;28;20202;-83
2022/10/18 06:06:39;;;;;;;2.65;2.45;;;;;;;;;;5053847;28;20198;-83
2022/10/18 06:09:08;;;;;;;2.30;2.20;;;;;;;;;;5054085;28;20212;-83
2022/10/18 06:11:39;;;;;;;3.33;2.60;;;;;;;;;;5053991;28;20206;-84
2022/10/18 06:14:09;;;;;;;2.78;2.58;;;;;;;;;;5053648;28;20296;-82
2022/10/18 06:16:38;;;;;;;3.22;3.03;;;;;;;;;;5073405;28;20205;-83
2022/10/18 06:19:05;;;;;;;3.03;2.80;;;;;;;;;;5073350;28;20780;-84
2022/10/18 06:21:33;;;;;;;3.20;2.95;;;;;;;;;;5073957;28;20196;-83
2022/10/18 06:24:01;;;;;;;4.00;3.70;;;;;;;;;;5073371;28;20201;-85
2022/10/18 06:26:28;;;;;;;2.92;2.67;;;;;;;;;;5073806;28;20398;-84
2022/10/18 06:28:56;;;;;;;1.88;1.77;;;;;;;;;;5073306;28;20284;-83
2022/10/18 06:31:24;;;;;;;1.85;1.75;;;;;;;;;;5073456;28;20211;-83
2022/10/18 06:33:52;;;;;;;1.38;1.33;;;;;;;;;;5058236;28;20194;-84
2022/10/18 06:36:22;;;;;;;1.45;1.35;;;;;;;;;;5053348;28;20221;-84
2022/10/18 06:38:50;;;;;;;1.73;1.63;;;;;;;;;;5053001;28;20206;-84
2022/10/18 06:41:18;;;;;;;1.77;1.55;;;;;;;;;;5055424;28;20587;-84
2022/10/18 06:43:49;;;;;;;2.20;2.10;;;;;;;;;;5056620;28;20197;-84
2022/10/18 06:46:17;;;;;;;2.35;2.08;;;;;;;;;;5053166;28;20225;-84
2022/10/18 06:48:44;;;;;;;2.15;1.92;;;;;;;;;;5052891;28;20201;-84
2022/10/18 06:51:14;;;;;;;2.00;1.90;;;;;;;;;;5052774;28;20292;-84
2022/10/18 06:53:42;;;;;;;2.17;2.08;;;;;;;;;;5053549;28;20204;-84
2022/10/18 06:56:12;;;;;;;2.03;1.92;;;;;;;;;;5052691;28;20259;-86
2022/10/18 06:58:39;;;;;;;1.50;1.40;;;;;;;;;;5052840;28;20201;-84
2022/10/18 07:01:09;;;;;;;1.50;1.40;;;;;;;;;;5052970;28;20228;-84
2022/10/18 07:03:37;;;;;;;1.70;1.60;;;;;;;;;;5053310;28;20407;-82
2022/10/18 07:06:07;;;;;;;1.70;1.60;;;;;;;;;;5052951;28;20304;-83
2022/10/18 07:08:36;;;;;;;2.45;2.25;;;;;;;;;;5052856;28;20211;-83
2022/10/18 07:11:04;;;;;;;2.40;2.20;;;;;;;;;;5053305;28;20206;-83
2022/10/18 07:13:33;;;;;;;2.10;2.00;;;;;;;;;;5052775;28;20285;-82
2022/10/18 07:16:04;;;;;;;2.03;1.92;;;;;;;;;;5053223;28;20245;-82
2022/10/18 07:18:32;;;;;;;2.35;2.15;;;;;;;;;;5052960;28;20614;-82
2022/10/18 07:21:02;;;;;;;2.83;2.63;;;;;;;;;;5052761;28;20222;-83
2022/10/18 07:23:31;;;;;;;2.50;2.30;;;;;;;;;;5053000;28;20248;-83
2022/10/18 07:26:01;;;;;;;2.15;2.05;;;;;;;;;;5053349;28;20228;-82
2022/10/18 07:28:28;;;;;;;2.40;2.20;;;;;;;;;;5052757;28;20292;-83
2022/10/18 07:30:56;;;;;;;1.95;1.85;;;;;;;;;;5085164;28;20189;-82
2022/10/18 07:33:24;;;;;;;2.42;2.22;;;;;;;;;;5064146;28;20287;-84
2022/10/18 07:35:52;;;;;;;2.30;2.20;;;;;;;;;;5065764;28;20228;-82
2022/10/18 07:38:19;;;;;;;2.15;2.05;;;;;;;;;;5052590;28;20243;-83
2022/10/18 07:40:47;;;;;;;2.10;2.00;;;;;;;;;;5052732;28;20226;-83
2022/10/18 07:43:15;;;;;;;2.03;1.92;;;;;;;;;;5052759;28;20293;-83
2022/10/18 07:45:52;;;;;;;2.40;2.22;;;;;;;;;;5052934;28;20232;-84
2022/10/18 07:48:20;;;;;;;1.85;1.75;;;;;;;;;;5052556;28;20201;-82
2022/10/18 07:50:47;;;;;;;1.52;1.42;;;;;;;;;;5052496;28;20284;-82
2022/10/18 07:53:15;;;;;;;1.50;1.40;;;;;;;;;;5052679;28;20764;-82
2022/10/18 07:55:43;;;;;;;1.30;1.20;;;;;;;;;;5052693;28;20228;-83
2022/10/18 07:58:11;;;;;;;1.30;1.30;;;;;;;;;;5052759;28;20267;-82
2022/10/18 08:00:40;;;;;;;1.25;1.25;;;;;;;;;;5052788;28;20312;-82
2022/10/18 08:03:07;;;;;;;1.17;1.17;;;;;;;;;;5052633;28;20289;-83
2022/10/18 08:05:35;;;;;;;1.15;1.15;;;;;;;;;;5052606;28;20221;-83
2022/10/18 08:08:02;;;;;;;1.20;1.20;;;;;;;;;;5052763;28;20209;-83
2022/10/18 08:10:30;;;;;;;1.60;1.50;;;;;;;;;;5033183;28;20206;-82
2022/10/18 08:12:57;;;;;;;1.40;1.40;;;;;;;;;;5032941;28;20694;-83
2022/10/18 08:15:25;;;;;;;1.80;1.70;;;;;;;;;;5032687;28;20229;-83
2022/10/18 08:17:54;;;;;;;1.45;1.35;;;;;;;;;;5033240;28;20217;-82
2022/10/18 08:20:21;;;;;;;1.83;1.73;;;;;;;;;;5032508;28;20691;-84
2022/10/18 08:22:50;;;;;;;1.60;1.50;;;;;;;;;;5032966;28;20290;-82
2022/10/18 08:25:18;;;;;;;1.95;1.85;;;;;;;;;;5032972;28;20222;-82
2022/10/18 08:27:45;;;;;;;1.60;1.50;;;;;;;;;;5032372;28;20203;-83
2022/10/18 08:30:13;;;;;;;1.60;1.50;;;;;;;;;;5032462;28;20301;-83
2022/10/18 08:32:41;;;;;;;1.27;1.27;;;;;;;;;;5044058;28;20207;-82
2022/10/18 08:35:10;;;;;;;1.40;1.40;;;;;;;;;;5071287;28;20216;-81
2022/10/18 08:37:39;;;;;;;1.27;1.27;;;;;;;;;;5052934;28;20205;-82
2022/10/18 08:40:09;;;;;;;1.90;1.80;;;;;;;;;;5052393;28;20743;-82
2022/10/18 08:42:48;;;;;;;2.42;2.22;;;;;;;;;;5052763;28;20678;-83
2022/10/18 08:45:16;;;;;;;2.40;2.20;;;;;;;;;;5053075;28;20229;-83
2022/10/18 08:47:47;;;;;;;1.85;1.75;;;;;;;;;;5052982;28;20208;-83
2022/10/18 08:50:20;;;;;;;1.98;1.88;;;;;;;;;;5052613;28;20194;-83
2022/10/18 08:52:57;;;;;;;1.33;1.23;;;;;;;;;;5052713;28;20596;-83
2022/10/18 08:55:28;;;;;;;1.30;1.23;;;;;;;;;;5056052;28;20223;-83
2022/10/18 08:57:58;;;;;;;2.03;1.90;;;;;;;;;;5057631;28;20208;-83
2022/10/18 09:00:29;;;;;;;2.58;2.10;;;;;;;;;;5057937;28;20292;-84
2022/10/18 09:03:13;;;;;;;1.33;1.33;;;;;;;;;;5059091;28;20733;-84
2022/10/18 09:05:49;;;;;;;2.47;1.83;;;;;;;;;;5059643;28;20248;-85
2022/10/18 09:08:46;;;;;;;2.28;2.17;;;;;;;;;;5059936;28;20201;-84
2022/10/18 09:11:27;;;;;;;2.95;2.75;;;;;;;;;;5054736;28;20313;-83
2022/10/18 09:14:39;;;;;;;2.70;2.50;;;;;;;;;;5060897;28;20219;-84
2022/10/18 09:17:16;;;;;;;2.13;2.03;;;;;;;;;;5041228;28;20201;-84
2022/10/18 09:19:55;;;;;;;3.00;2.75;;;;;;;;;;5060459;28;20594;-83
2022/10/18 09:22:32;;;;;;;3.90;3.55;;;;;;;;;;5060126;28;20225;-84
2022/10/18 09:25:06;;;;;;;3.38;3.17;;;;;;;;;;5060424;28;20715;-83
2022/10/18 09:27:40;;;;;;;3.20;3.00;;;;;;;;;;5060676;28;20216;-84
2022/10/18 09:30:13;;;;;;;4.55;4.25;;;;;;;;;;5059937;28;20209;-83
2022/10/18 09:32:48;;;;;;;4.80;4.38;;;;;;;;;;5065287;28;20276;-84
2022/10/18 09:35:18;;;;;;;4.80;4.45;;;;;;;;;;5077177;28;20783;-83
2022/10/18 09:37:48;;;;;;;4.30;4.00;;;;;;;;;;5059872;28;20202;-85
2022/10/18 09:40:19;;;;;;;5.32;4.93;;;;;;;;;;5058189;28;20213;-84
2022/10/18 09:42:55;;;;;;;5.15;4.75;;;;;;;;;;5059071;28;20312;-84
2022/10/18 09:45:27;;;;;;;4.90;4.50;;;;;;;;;;5059150;28;20233;-84
2022/10/18 09:48:03;;;;;;;4.68;4.28;;;;;;;;;;5060318;28;20200;-82
2022/10/18 09:50:36;;;;;;;4.50;4.10;;;;;;;;;;5060990;28;20262;-84
2022/10/18 09:53:15;;;;;;;4.13;3.72;;;;;;;;;;5060426;28;20202;-84
2022/10/18 09:55:56;;;;;;;4.53;4.13;;;;;;;;;;5079352;28;20231;-82
2022/10/18 09:58:25;;;;;;;4.13;3.75;;;;;;;;;;5078821;28;20199;-84
2022/10/18 10:00:53;;;;;;;2.47;2.30;;;;;;;;;;5078501;28;20205;-82
2022/10/18 10:03:21;;;;;;;3.28;3.00;;;;;;;;;;5078714;28;20260;-84
2022/10/18 10:06:03;;;;;;;3.70;3.40;;;;;;;;;;5072323;28;20257;-84
2022/10/18 10:08:34;;;;;;;3.20;2.85;;;;;;;;;;5059182;28;20209;-83
2022/10/18 10:11:02;;;;;;;3.53;3.22;;;;;;;;;;5059317;28;20292;-84
2022/10/18 10:13:30;;;;;;;3.05;2.85;;;;;;;;;;5059241;28;20672;-84
2022/10/18 10:16:00;;;;;;;2.90;2.67;;;;;;;;;;5059259;28;20221;-83
2022/10/18 10:18:31;;;;;;;3.42;3.13;;;;;;;;;;5058538;28;20194;-84
2022/10/18 10:21:00;;;;;;;2.63;2.42;;;;;;;;;;5059317;28;20208;-84
2022/10/18 10:23:29;;;;;;;2.85;2.65;;;;;;;;;;5059569;28;20193;-83
2022/10/18 10:26:01;;;;;;;4.63;3.28;;;;;;;;;;5056608;28;20247;-84
2022/10/18 10:28:30;;;;;;;2.50;2.30;;;;;;;;;;5057141;28;20202;-83
2022/10/18 10:31:21;;;;;;;2.88;2.60;;;;;;;;;;5057786;28;20212;-83
2022/10/18 10:33:48;;;;;;;2.90;2.70;;;;;;;;;;5073002;28;20669;-83
2022/10/18 10:36:19;;;;;;;3.15;2.95;;;;;;;;;;5067932;28;20315;-84
2022/10/18 10:38:49;;;;;;;2.58;2.38;;;;;;;;;;5057772;28;20216;-84
2022/10/18 10:41:23;;;;;;;6.03;4.50;;;;;;;;;;5056808;28;20229;-84
2022/10/18 10:43:51;;;;;;;2.45;2.25;;;;;;;;;;5058059;28;20772;-82
2022/10/18 10:46:21;;;;;;;3.22;3.03;;;;;;;;;;5057338;28;20660;-83
2022/10/18 10:48:51;;;;;;;1.80;1.70;;;;;;;;;;5056247;28;20211;-83
2022/10/18 10:51:30;;;;;;;2.45;2.28;;;;;;;;;;5055105;28;20209;-83
2022/10/18 10:54:01;;;;;;;2.25;2.13;;;;;;;;;;5057794;28;20193;-84
2022/10/18 10:56:32;;;;;;;2.58;2.38;;;;;;;;;;5058025;28;20296;-83
2022/10/18 10:59:08;;;;;;;3.08;2.88;;;;;;;;;;5056441;28;20203;-84
2022/10/18 11:01:36;;;;;;;2.45;2.25;;;;;;;;;;5057232;28;20288;-82
2022/10/18 11:04:23;;;;;;;3.05;2.63;;;;;;;;;;5056577;28;20292;-84
2022/10/18 11:07:11;;;;;;;2.75;2.55;;;;;;;;;;5056651;28;20217;-83
2022/10/18 11:09:48;;;;;;;1.80;1.70;;;;;;;;;;5055541;28;20220;-84
2022/10/18 11:12:27;;;;;;;2.85;2.65;;;;;;;;;;5057810;28;20198;-86
2022/10/18 11:15:12;;;;;;;2.28;2.17;;;;;;;;;;5056220;28;20221;-85
2022/10/18 11:17:45;;;;;;;1.75;1.65;;;;;;;;;;5054300;28;20744;-83
2022/10/18 11:20:21;;;;;;;2.28;2.08;;;;;;;;;;5054417;28;20216;-84
2022/10/18 11:23:00;;;;;;;2.92;2.72;;;;;;;;;;5053776;28;20693;-84
2022/10/18 11:25:46;;;;;;;2.45;2.30;;;;;;;;;;5053951;28;20334;-84
2022/10/18 11:28:25;;;;;;;2.13;2.03;;;;;;;;;;5053093;28;20205;-85
2022/10/18 11:31:08;;;;;;;2.35;2.15;;;;;;;;;;5053767;28;20205;-84
2022/10/18 11:33:47;;;;;;;2.60;2.40;;;;;;;;;;5066736;28;20197;-84
2022/10/18 11:36:20;;;;;;;2.50;2.30;;;;;;;;;;5063853;28;20731;-85
2022/10/18 11:38:56;;;;;;;2.45;2.10;;;;;;;;;;5052747;28;20587;-85
2022/10/18 11:41:31;;;;;;;2.63;2.42;;;;;;;;;;5054024;28;20574;-83
2022/10/18 11:44:01;;;;;;;2.90;2.67;;;;;;;;;;5055080;28;20758;-85
2022/10/18 11:46:42;;;;;;;2.25;2.05;;;;;;;;;;5054016;28;20198;-85
2022/10/18 11:49:26;;;;;;;2.17;2.08;;;;;;;;;;5052967;28;20211;-84
2022/10/18 11:52:04;;;;;;;3.55;2.50;;;;;;;;;;5054026;28;20719;-83
2022/10/18 11:54:53;;;;;;;3.22;2.40;;;;;;;;;;5053841;28;20229;-83
2022/10/18 11:57:39;;;;;;;2.53;2.33;;;;;;;;;;5053583;28;20293;-83
2022/10/18 12:00:25;;;;;;;2.60;2.42;;;;;;;;;;5054495;28;20657;-83
2022/10/18 12:03:27;;;;;;;2.72;2.53;;;;;;;;;;5055251;28;20220;-83
2022/10/18 12:05:57;;;;;;;2.35;2.22;;;;;;;;;;5054574;28;20236;-83
2022/10/18 12:08:31;;;;;;;3.20;3.00;;;;;;;;;;5054043;28;20780;-83
2022/10/18 12:11:04;;;;;;;2.70;2.50;;;;;;;;;;5053476;28;20235;-83
2022/10/18 12:13:37;;;;;;;2.83;2.63;;;;;;;;;;5054483;28;20209;-84
2022/10/18 12:16:08;;;;;;;2.63;2.47;;;;;;;;;;5054122;28;20232;-83
2022/10/18 12:18:41;;;;;;;3.30;3.00;;;;;;;;;;5053370;28;20215;-84
2022/10/18 12:21:10;;;;;;;2.50;2.38;;;;;;;;;;5053796;28;20190;-83
2022/10/18 12:23:42;;;;;;;1.90;1.80;;;;;;;;;;5053678;28;20316;-83
2022/10/18 12:26:11;;;;;;;2.40;2.20;;;;;;;;;;5053575;28;20225;-83
2022/10/18 12:28:49;;;;;;;2.65;2.45;;;;;;;;;;5058609;28;20261;-83
2022/10/18 12:31:24;;;;;;;2.47;2.28;;;;;;;;;;5053467;28;20288;-83
2022/10/18 12:33:56;;;;;;;3.20;2.40;;;;;;;;;;5068043;28;20280;-83
2022/10/18 12:36:44;;;;;;;2.70;2.50;;;;;;;;;;5062795;28;20703;-84
2022/10/18 12:39:18;;;;;;;3.42;3.13;;;;;;;;;;5054678;28;20225;-84
2022/10/18 12:41:47;;;;;;;3.58;3.28;;;;;;;;;;5055101;28;20198;-84
2022/10/18 12:44:21;;;;;;;4.32;3.92;;;;;;;;;;5052773;28;20228;-84
2022/10/18 12:46:52;;;;;;;4.00;3.63;;;;;;;;;;5053391;28;20212;-84
2022/10/18 12:49:28;;;;;;;8.18;3.88;;;;;;;;;;5055264;28;20207;-83
2022/10/18 12:51:58;;;;;;;3.67;3.40;;;;;;;;;;5057287;28;20233;-82
2022/10/18 12:54:28;;;;;;;3.67;3.38;;;;;;;;;;5056109;28;20736;-84
2022/10/18 12:56:57;;;;;;;4.07;3.78;;;;;;;;;;5057818;28;20197;-82
2022/10/18 12:59:52;;;;;;;4.47;4.15;;;;;;;;;;5056492;28;20580;-84
2022/10/18 13:02:31;;;;;;;4.10;3.80;;;;;;;;;;5055901;28;20233;-83
2022/10/18 13:05:00;;;;;;;3.60;3.40;;;;;;;;;;5056334;28;20225;-84
2022/10/18 13:07:42;;;;;;;3.55;3.33;;;;;;;;;;5056964;28;20229;-83
2022/10/18 13:10:39;;;;;;;3.55;3.30;;;;;;;;;;5056182;28;20583;-84
2022/10/18 13:13:28;;;;;;;4.28;3.90;;;;;;;;;;5056713;28;20261;-84
2022/10/18 13:16:05;;;;;;;3.88;3.58;;;;;;;;;;5056303;28;20218;-83
2022/10/18 13:18:46;;;;;;;6.07;4.75;;;;;;;;;;5057349;28;20596;-84
2022/10/18 13:21:20;;;;;;;4.93;4.38;;;;;;;;;;5058477;28;20209;-84
2022/10/18 13:24:25;;;;;;;5.20;4.80;;;;;;;;;;5057340;28;20644;-82
2022/10/18 13:27:19;;;;;;;5.05;4.57;;;;;;;;;;5051455;28;20265;-83
2022/10/18 13:30:22;;;;;;;5.10;4.70;;;;;;;;;;5057089;28;20201;-83
2022/10/18 13:32:56;;;;;;;5.38;3.88;;;;;;;;;;5063958;28;20197;-84
2022/10/18 13:35:51;;;;;;;5.13;4.72;;;;;;;;;;5074485;28;20315;-84
2022/10/18 13:38:45;;;;;;;4.28;3.97;;;;;;;;;;5057161;28;20208;-83
2022/10/18 13:41:17;;;;;;;4.13;3.83;;;;;;;;;;5056757;28;20210;-83
2022/10/18 13:44:27;;;;;;;4.55;4.05;;;;;;;;;;5057194;28;20312;-83
2022/10/18 13:47:33;;;;;;;4.45;4.05;;;;;;;;;;5056857;28;20479;-84
2022/10/18 13:50:32;;;;;;;3.92;3.63;;;;;;;;;;5056792;28;20201;-84
2022/10/18 13:53:16;;;;;;;4.05;3.75;;;;;;;;;;5056627;28;20194;-83
2022/10/18 13:56:34;;;;;;;4.22;3.92;;;;;;;;;;5056662;28;20228;-83
2022/10/18 13:59:18;;;;;;;3.30;3.00;;;;;;;;;;5019343;28;20202;-83
2022/10/18 14:02:00;;;;;;;5.60;5.10;;;;;;;;;;5056162;28;20300;-84
2022/10/18 14:05:07;;;;;;;5.03;4.53;;;;;;;;;;5056705;28;20221;-84
2022/10/18 14:07:35;;;;;;;5.72;5.22;;;;;;;;;;5001811;28;20206;-84
2022/10/18 14:10:07;;;;;;;5.90;5.30;;;;;;;;;;5051896;28;20300;-85
2022/10/18 14:12:41;;;;;;;5.55;5.00;;;;;;;;;;5056203;28;20236;-84
2022/10/18 14:15:14;;;;;;;7.47;6.15;;;;;;;;;;5056939;28;20308;-84
2022/10/18 14:17:46;;;;;;;4.70;4.30;;;;;;;;;;5056480;28;20209;-83
2022/10/18 14:20:21;;;;;;;4.63;4.30;;;;;;;;;;5055450;28;20284;-84
2022/10/18 14:22:54;;;;;;;3.88;3.58;;;;;;;;;;5056386;28;20205;-84
2022/10/18 14:25:29;;;;;;;7.90;5.32;;;;;;;;;;5056594;28;20232;-82
2022/10/18 14:28:11;;;;;;;6.13;5.03;;;;;;;;;;5056515;28;20304;-84
2022/10/18 14:30:52;;;;;;;5.65;5.18;;;;;;;;;;5056768;28;20701;-83
2022/10/18 14:33:27;;;;;;;5.30;4.90;;;;;;;;;;5066863;28;20200;-82
2022/10/18 14:36:05;;;;;;;4.97;4.57;;;;;;;;;;5068646;28;20224;-83
2022/10/18 14:38:34;;;;;;;4.85;4.45;;;;;;;;;;5055747;28;20201;-83
2022/10/18 14:41:14;;;;;;;5.03;4.63;;;;;;;;;;5056194;28;20219;-83
2022/10/18 14:43:41;;;;;;;3.58;3.28;;;;;;;;;;5055324;28;20255;-84
2022/10/18 14:46:15;;;;;;;5.93;5.40;;;;;;;;;;5055430;28;20221;-83
2022/10/18 14:48:42;;;;;;;6.18;5.63;;;;;;;;;;5055625;28;20201;-84
2022/10/18 14:51:13;;;;;;;6.05;5.45;;;;;;;;;;5056417;28;20289;-84
2022/10/18 14:53:41;;;;;;;6.75;5.97;;;;;;;;;;5055655;28;20202;-83
2022/10/18 14:56:23;;;;;;;7.65;5.95;;;;;;;;;;5055856;28;20739;-83
2022/10/18 14:58:52;;;;;;;6.28;5.72;;;;;;;;;;5055861;28;20202;-85
2022/10/18 15:01:23;;;;;;;4.97;4.57;;;;;;;;;;5055202;28;20588;-83
2022/10/18 15:03:50;;;;;;;5.68;5.18;;;;;;;;;;5055508;28;20198;-83
2022/10/18 15:06:20;;;;;;;6.50;5.85;;;;;;;;;;5054574;28;20312;-84
2022/10/18 15:08:51;;;;;;;5.68;5.13;;;;;;;;;;5055267;28;20235;-83
2022/10/18 15:11:20;;;;;;;5.10;4.63;;;;;;;;;;5056115;28;20595;-83
2022/10/18 15:13:52;;;;;;;6.68;5.50;;;;;;;;;;5054876;28;20292;-83
2022/10/18 15:16:22;;;;;;;5.70;4.30;;;;;;;;;;5054486;28;20218;-82